createdAt,value
2018-08-19T00:00:41.432Z,1017.17
2018-08-19T00:01:50.337Z,1017.18
2018-08-19T00:02:58.986Z,1017.14
2018-08-19T00:04:07.631Z,1017.13
2018-08-19T00:05:16.278Z,1017.09
2018-08-19T00:06:25.184Z,1017.06
2018-08-19T00:07:33.829Z,1017.1
2018-08-19T00:08:42.747Z,1017.1
2018-08-19T00:09:51.646Z,1017.08
2018-08-19T00:11:00.295Z,1017.15
2018-08-19T00:12:08.935Z,1017.12
2018-08-19T00:13:17.584Z,1017.11
2018-08-19T00:14:26.230Z,1017.12
2018-08-19T00:15:34.882Z,1017.07
2018-08-19T00:16:43.518Z,1017.12
2018-08-19T00:17:52.165Z,1017.1
2018-08-19T00:19:00.818Z,1017.1
2018-08-19T00:20:09.464Z,1017.11
2018-08-19T00:21:18.116Z,1017.12
2018-08-19T00:22:26.750Z,1017.12
2018-08-19T00:23:35.672Z,1017.09
2018-08-19T00:24:44.312Z,1017.13
2018-08-19T00:25:52.967Z,1017.1
2018-08-19T00:27:01.607Z,1017.07
2018-08-19T00:28:10.783Z,1017.08
2018-08-19T00:29:19.425Z,1017.08
2018-08-19T00:30:28.345Z,1017.04
2018-08-19T00:31:36.982Z,1017.06
2018-08-19T00:32:45.892Z,1017.06
2018-08-19T00:33:54.901Z,1017.08
2018-08-19T00:35:04.367Z,1017.06
2018-08-19T00:36:13.012Z,1017.03
2018-08-19T00:37:21.655Z,1017.06
2018-08-19T00:38:30.295Z,1017.06
2018-08-19T00:39:39.212Z,1017.08
2018-08-19T00:40:47.870Z,1017.03
2018-08-19T00:41:56.514Z,1017.02
2018-08-19T00:43:05.426Z,1017.03
2018-08-19T00:44:14.065Z,1017.06
2018-08-19T00:45:22.719Z,1017.04
2018-08-19T00:46:31.373Z,1017.05
2018-08-19T00:47:40.014Z,1017.04
2018-08-19T00:48:48.652Z,1017.05
2018-08-19T00:49:57.307Z,1017.04
2018-08-19T00:51:05.950Z,1017.05
2018-08-19T00:52:14.598Z,1017.02
2018-08-19T00:53:23.233Z,1017.01
2018-08-19T00:54:31.884Z,1017.03
2018-08-19T00:55:40.799Z,1017.02
2018-08-19T00:56:49.710Z,1017.01
2018-08-19T00:57:58.622Z,1016.99
2018-08-19T00:59:07.257Z,1017.01
2018-08-19T01:00:15.916Z,1016.99
2018-08-19T01:01:24.549Z,1016.99
2018-08-19T01:02:33.207Z,1016.97
2018-08-19T01:03:41.841Z,1016.95
2018-08-19T01:04:50.492Z,1016.97
2018-08-19T01:05:59.131Z,1016.95
2018-08-19T01:07:07.786Z,1016.93
2018-08-19T01:08:16.425Z,1016.93
2018-08-19T01:09:25.069Z,1016.91
2018-08-19T01:10:33.722Z,1016.92
2018-08-19T01:11:42.636Z,1016.89
2018-08-19T01:12:51.278Z,1016.92
2018-08-19T01:13:59.919Z,1016.91
2018-08-19T01:15:08.569Z,1016.91
2018-08-19T01:16:17.222Z,1016.89
2018-08-19T01:17:25.857Z,1016.9
2018-08-19T01:18:34.507Z,1016.86
2018-08-19T01:19:43.147Z,1016.86
2018-08-19T01:20:52.081Z,1016.84
2018-08-19T01:22:00.717Z,1016.85
2018-08-19T01:23:09.630Z,1016.8
2018-08-19T01:24:18.270Z,1016.82
2018-08-19T01:25:27.188Z,1016.84
2018-08-19T01:26:35.824Z,1016.88
2018-08-19T01:27:44.479Z,1016.87
2018-08-19T01:28:53.113Z,1016.89
2018-08-19T01:30:01.768Z,1016.9
2018-08-19T01:31:10.415Z,1016.88
2018-08-19T01:32:19.051Z,1016.85
2018-08-19T01:33:27.694Z,1016.85
2018-08-19T01:34:36.335Z,1016.8
2018-08-19T01:35:44.990Z,1016.82
2018-08-19T01:36:53.629Z,1016.76
2018-08-19T01:38:02.279Z,1016.77
2018-08-19T01:39:10.917Z,1016.77
2018-08-19T01:40:19.835Z,1016.73
2018-08-19T01:41:28.477Z,1016.72
2018-08-19T01:42:37.126Z,1016.7
2018-08-19T01:43:45.763Z,1016.67
2018-08-19T01:44:54.418Z,1016.67
2018-08-19T01:46:03.066Z,1016.69
2018-08-19T01:47:11.716Z,1016.69
2018-08-19T01:48:20.358Z,1016.67
2018-08-19T01:49:29.529Z,1016.67
2018-08-19T01:50:38.180Z,1016.72
2018-08-19T01:51:46.829Z,1016.72
2018-08-19T01:52:55.476Z,1016.69
2018-08-19T01:54:04.379Z,1016.7
2018-08-19T01:55:13.029Z,1016.68
2018-08-19T01:56:21.931Z,1016.71
2018-08-19T01:57:30.585Z,1016.69
2018-08-19T01:58:39.221Z,1016.69
2018-08-19T01:59:47.867Z,1016.7
2018-08-19T02:00:56.505Z,1016.7
2018-08-19T02:02:05.160Z,1016.7
2018-08-19T02:03:13.793Z,1016.69
2018-08-19T02:04:22.440Z,1016.68
2018-08-19T02:05:31.087Z,1016.68
2018-08-19T02:06:39.739Z,1016.7
2018-08-19T02:07:48.385Z,1016.67
2018-08-19T02:08:57.026Z,1016.65
2018-08-19T02:10:05.667Z,1016.63
2018-08-19T02:11:14.310Z,1016.62
2018-08-19T02:12:22.966Z,1016.62
2018-08-19T02:13:31.610Z,1016.61
2018-08-19T02:14:40.259Z,1016.63
2018-08-19T02:15:49.163Z,1016.63
2018-08-19T02:16:57.812Z,1016.61
2018-08-19T02:18:06.457Z,1016.6
2018-08-19T02:19:15.102Z,1016.61
2018-08-19T02:20:23.737Z,1016.61
2018-08-19T02:21:32.388Z,1016.58
2018-08-19T02:22:41.033Z,1016.57
2018-08-19T02:23:49.679Z,1016.56
2018-08-19T02:24:58.319Z,1016.6
2018-08-19T02:26:06.968Z,1016.52
2018-08-19T02:27:15.613Z,1016.57
2018-08-19T02:28:24.259Z,1016.54
2018-08-19T02:29:32.914Z,1016.58
2018-08-19T02:30:41.554Z,1016.55
2018-08-19T02:31:50.203Z,1016.55
2018-08-19T02:32:59.119Z,1016.57
2018-08-19T02:34:07.772Z,1016.58
2018-08-19T02:35:16.424Z,1016.59
2018-08-19T02:36:25.069Z,1016.59
2018-08-19T02:37:33.717Z,1016.64
2018-08-19T02:38:42.370Z,1016.64
2018-08-19T02:39:51.276Z,1016.68
2018-08-19T02:40:59.925Z,1016.67
2018-08-19T02:42:08.828Z,1016.67
2018-08-19T02:43:17.477Z,1016.63
2018-08-19T02:44:26.120Z,1016.66
2018-08-19T02:45:34.764Z,1016.61
2018-08-19T02:46:43.406Z,1016.58
2018-08-19T02:47:52.052Z,1016.57
2018-08-19T02:49:00.705Z,1016.56
2018-08-19T02:50:09.352Z,1016.53
2018-08-19T02:51:17.998Z,1016.53
2018-08-19T02:52:26.638Z,1016.58
2018-08-19T02:53:35.555Z,1016.54
2018-08-19T02:54:44.197Z,1016.51
2018-08-19T02:55:52.845Z,1016.5
2018-08-19T02:57:01.487Z,1016.48
2018-08-19T02:58:10.137Z,1016.52
2018-08-19T02:59:18.781Z,1016.47
2018-08-19T03:00:27.438Z,1016.49
2018-08-19T03:01:36.081Z,1016.51
2018-08-19T03:02:44.732Z,1016.54
2018-08-19T03:03:53.375Z,1016.51
2018-08-19T03:05:02.023Z,1016.54
2018-08-19T03:06:10.685Z,1016.53
2018-08-19T03:07:19.589Z,1016.52
2018-08-19T03:08:28.496Z,1016.49
2018-08-19T03:09:37.142Z,1016.52
2018-08-19T03:10:45.794Z,1016.48
2018-08-19T03:11:54.439Z,1016.49
2018-08-19T03:13:03.085Z,1016.48
2018-08-19T03:14:11.739Z,1016.49
2018-08-19T03:15:20.641Z,1016.46
2018-08-19T03:16:29.298Z,1016.45
2018-08-19T03:17:38.010Z,1016.44
2018-08-19T03:18:46.589Z,1016.42
2018-08-19T03:19:55.228Z,1016.46
2018-08-19T03:21:03.875Z,1016.43
2018-08-19T03:22:12.523Z,1016.44
2018-08-19T03:23:21.174Z,1016.41
2018-08-19T03:24:29.820Z,1016.41
2018-08-19T03:25:38.456Z,1016.42
2018-08-19T03:26:47.379Z,1016.38
2018-08-19T03:27:56.020Z,1016.38
2018-08-19T03:29:04.672Z,1016.39
2018-08-19T03:30:13.309Z,1016.38
2018-08-19T03:31:22.232Z,1016.37
2018-08-19T03:32:30.880Z,1016.36
2018-08-19T03:33:39.535Z,1016.33
2018-08-19T03:34:48.183Z,1016.32
2018-08-19T03:35:57.091Z,1016.32
2018-08-19T03:37:05.733Z,1016.32
2018-08-19T03:38:14.388Z,1016.31
2018-08-19T03:39:23.031Z,1016.28
2018-08-19T03:40:31.675Z,1016.24
2018-08-19T03:41:40.321Z,1016.28
2018-08-19T03:42:48.964Z,1016.25
2018-08-19T03:43:58.411Z,1016.26
2018-08-19T03:45:07.053Z,1016.27
2018-08-19T03:46:15.701Z,1016.26
2018-08-19T03:47:24.343Z,1016.27
2018-08-19T03:48:33.257Z,1016.29
2018-08-19T03:49:42.168Z,1016.23
2018-08-19T03:50:50.818Z,1016.25
2018-08-19T03:51:59.454Z,1016.2
2018-08-19T03:53:08.109Z,1016.2
2018-08-19T03:54:16.751Z,1016.19
2018-08-19T03:55:25.398Z,1016.2
2018-08-19T03:56:34.038Z,1016.2
2018-08-19T03:57:42.690Z,1016.21
2018-08-19T03:58:51.344Z,1016.19
2018-08-19T03:59:59.998Z,1016.23
2018-08-19T04:01:08.645Z,1016.26
2018-08-19T04:02:17.547Z,1016.27
2018-08-19T04:03:26.482Z,1016.3
2018-08-19T04:04:35.122Z,1016.29
2018-08-19T04:05:43.775Z,1016.25
2018-08-19T04:06:52.411Z,1016.3
2018-08-19T04:08:01.061Z,1016.32
2018-08-19T04:09:09.700Z,1016.32
2018-08-19T04:10:18.351Z,1016.31
2018-08-19T04:11:26.994Z,1016.29
2018-08-19T04:12:35.639Z,1016.31
2018-08-19T04:13:44.286Z,1016.33
2018-08-19T04:14:52.935Z,1016.3
2018-08-19T04:16:01.852Z,1016.33
2018-08-19T04:17:11.038Z,1016.33
2018-08-19T04:18:19.946Z,1016.33
2018-08-19T04:19:28.851Z,1016.34
2018-08-19T04:20:37.765Z,1016.33
2018-08-19T04:21:46.410Z,1016.37
2018-08-19T04:22:55.057Z,1016.32
2018-08-19T04:24:03.960Z,1016.37
2018-08-19T04:25:12.611Z,1016.39
2018-08-19T04:26:21.256Z,1016.35
2018-08-19T04:27:29.904Z,1016.36
2018-08-19T04:28:38.545Z,1016.36
2018-08-19T04:29:47.193Z,1016.34
2018-08-19T04:30:55.831Z,1016.29
2018-08-19T04:32:04.477Z,1016.3
2018-08-19T04:33:13.119Z,1016.29
2018-08-19T04:34:22.031Z,1016.29
2018-08-19T04:35:30.680Z,1016.24
2018-08-19T04:36:39.585Z,1016.27
2018-08-19T04:37:48.500Z,1016.26
2018-08-19T04:38:57.140Z,1016.25
2018-08-19T04:40:05.788Z,1016.26
2018-08-19T04:41:14.434Z,1016.26
2018-08-19T04:42:23.212Z,1016.27
2018-08-19T04:43:31.731Z,1016.26
2018-08-19T04:44:40.380Z,1016.28
2018-08-19T04:45:49.025Z,1016.28
2018-08-19T04:46:57.677Z,1016.29
2018-08-19T04:48:06.321Z,1016.26
2018-08-19T04:49:14.968Z,1016.24
2018-08-19T04:50:23.611Z,1016.24
2018-08-19T04:51:32.525Z,1016.24
2018-08-19T04:52:41.435Z,1016.26
2018-08-19T04:53:50.081Z,1016.26
2018-08-19T04:54:58.988Z,1016.25
2018-08-19T04:56:07.631Z,1016.25
2018-08-19T04:57:16.286Z,1016.29
2018-08-19T04:58:25.201Z,1016.27
2018-08-19T04:59:33.848Z,1016.28
2018-08-19T05:00:42.488Z,1016.3
2018-08-19T05:01:51.138Z,1016.28
2018-08-19T05:02:59.782Z,1016.29
2018-08-19T05:04:08.429Z,1016.3
2018-08-19T05:05:17.073Z,1016.27
2018-08-19T05:06:25.729Z,1016.28
2018-08-19T05:07:34.371Z,1016.27
2018-08-19T05:08:43.017Z,1016.28
2018-08-19T05:09:51.931Z,1016.32
2018-08-19T05:11:00.573Z,1016.27
2018-08-19T05:12:09.222Z,1016.26
2018-08-19T05:13:18.155Z,1016.25
2018-08-19T05:14:26.770Z,1016.28
2018-08-19T05:15:35.497Z,1016.26
2018-08-19T05:16:44.068Z,1016.25
2018-08-19T05:17:52.710Z,1016.26
2018-08-19T05:19:01.353Z,1016.25
2018-08-19T05:20:10.002Z,1016.26
2018-08-19T05:21:18.914Z,1016.32
2018-08-19T05:22:27.623Z,1016.31
2018-08-19T05:23:36.215Z,1016.28
2018-08-19T05:24:44.864Z,1016.3
2018-08-19T05:25:53.505Z,1016.34
2018-08-19T05:27:02.152Z,1016.35
2018-08-19T05:28:10.793Z,1016.38
2018-08-19T05:29:19.443Z,1016.36
2018-08-19T05:30:28.351Z,1016.43
2018-08-19T05:31:37.010Z,1016.4
2018-08-19T05:32:46.108Z,1016.39
2018-08-19T05:33:54.754Z,1016.4
2018-08-19T05:35:03.648Z,1016.44
2018-08-19T05:36:12.292Z,1016.41
2018-08-19T05:37:20.950Z,1016.44
2018-08-19T05:38:29.591Z,1016.47
2018-08-19T05:39:38.505Z,1016.47
2018-08-19T05:40:47.149Z,1016.45
2018-08-19T05:41:55.802Z,1016.47
2018-08-19T05:43:04.705Z,1016.44
2018-08-19T05:44:13.353Z,1016.49
2018-08-19T05:45:21.996Z,1016.47
2018-08-19T05:46:30.644Z,1016.46
2018-08-19T05:47:39.287Z,1016.42
2018-08-19T05:48:47.934Z,1016.42
2018-08-19T05:49:56.579Z,1016.4
2018-08-19T05:51:05.225Z,1016.4
2018-08-19T05:52:14.133Z,1016.4
2018-08-19T05:53:22.779Z,1016.36
2018-08-19T05:54:31.424Z,1016.43
2018-08-19T05:55:40.507Z,1016.42
2018-08-19T05:56:48.980Z,1016.39
2018-08-19T05:57:57.625Z,1016.38
2018-08-19T05:59:06.270Z,1016.39
2018-08-19T06:00:14.911Z,1016.34
2018-08-19T06:01:23.838Z,1016.35
2018-08-19T06:02:32.483Z,1016.39
2018-08-19T06:03:41.396Z,1016.37
2018-08-19T06:04:50.037Z,1016.33
2018-08-19T06:05:58.686Z,1016.35
2018-08-19T06:07:07.331Z,1016.31
2018-08-19T06:08:15.982Z,1016.32
2018-08-19T06:09:24.629Z,1016.35
2018-08-19T06:10:33.266Z,1016.35
2018-08-19T06:11:42.184Z,1016.39
2018-08-19T06:12:50.823Z,1016.33
2018-08-19T06:13:59.479Z,1016.35
2018-08-19T06:15:08.123Z,1016.37
2018-08-19T06:16:16.771Z,1016.35
2018-08-19T06:17:25.410Z,1016.34
2018-08-19T06:18:34.066Z,1016.36
2018-08-19T06:19:42.706Z,1016.36
2018-08-19T06:20:51.354Z,1016.34
2018-08-19T06:22:00.040Z,1016.35
2018-08-19T06:23:08.927Z,1016.38
2018-08-19T06:24:17.574Z,1016.38
2018-08-19T06:25:26.215Z,1016.37
2018-08-19T06:26:34.862Z,1016.39
2018-08-19T06:27:43.504Z,1016.4
2018-08-19T06:28:52.160Z,1016.39
2018-08-19T06:30:00.804Z,1016.37
2018-08-19T06:31:09.566Z,1016.34
2018-08-19T06:32:18.092Z,1016.29
2018-08-19T06:33:26.748Z,1016.31
2018-08-19T06:34:35.432Z,1016.33
2018-08-19T06:35:44.037Z,1016.32
2018-08-19T06:36:52.672Z,1016.29
2018-08-19T06:38:01.326Z,1016.31
2018-08-19T06:39:09.973Z,1016.31
2018-08-19T06:40:18.889Z,1016.32
2018-08-19T06:41:27.528Z,1016.34
2018-08-19T06:42:36.182Z,1016.32
2018-08-19T06:43:44.836Z,1016.32
2018-08-19T06:44:53.477Z,1016.35
2018-08-19T06:46:02.387Z,1016.35
2018-08-19T06:47:11.029Z,1016.4
2018-08-19T06:48:19.678Z,1016.37
2018-08-19T06:49:28.324Z,1016.4
2018-08-19T06:50:37.257Z,1016.42
2018-08-19T06:51:45.889Z,1016.4
2018-08-19T06:52:54.540Z,1016.45
2018-08-19T06:54:03.181Z,1016.42
2018-08-19T06:55:11.842Z,1016.43
2018-08-19T06:56:20.478Z,1016.38
2018-08-19T06:57:29.391Z,1016.36
2018-08-19T06:58:38.035Z,1016.38
2018-08-19T06:59:46.963Z,1016.4
2018-08-19T07:00:55.873Z,1016.44
2018-08-19T07:02:04.516Z,1016.41
2018-08-19T07:03:13.231Z,1016.39
2018-08-19T07:04:21.806Z,1016.42
2018-08-19T07:05:30.462Z,1016.39
2018-08-19T07:06:39.105Z,1016.39
2018-08-19T07:07:47.757Z,1016.36
2018-08-19T07:08:56.394Z,1016.36
2018-08-19T07:10:05.041Z,1016.35
2018-08-19T07:11:13.690Z,1016.35
2018-08-19T07:12:22.334Z,1016.36
2018-08-19T07:13:31.278Z,1016.39
2018-08-19T07:14:39.929Z,1016.42
2018-08-19T07:15:48.574Z,1016.43
2018-08-19T07:16:57.224Z,1016.42
2018-08-19T07:18:05.870Z,1016.39
2018-08-19T07:19:14.779Z,1016.41
2018-08-19T07:20:23.451Z,1016.43
2018-08-19T07:21:32.079Z,1016.43
2018-08-19T07:22:40.729Z,1016.42
2018-08-19T07:23:49.398Z,1016.42
2018-08-19T07:24:58.021Z,1016.39
2018-08-19T07:26:06.668Z,1016.41
2018-08-19T07:27:15.318Z,1016.39
2018-08-19T07:28:23.961Z,1016.4
2018-08-19T07:29:32.632Z,1016.37
2018-08-19T07:30:41.632Z,1016.37
2018-08-19T07:31:50.286Z,1016.32
2018-08-19T07:32:58.932Z,1016.33
2018-08-19T07:34:07.850Z,1016.33
2018-08-19T07:35:16.492Z,1016.32
2018-08-19T07:36:25.142Z,1016.33
2018-08-19T07:37:33.788Z,1016.28
2018-08-19T07:38:42.435Z,1016.31
2018-08-19T07:39:51.351Z,1016.29
2018-08-19T07:41:00.002Z,1016.29
2018-08-19T07:42:08.659Z,1016.33
2018-08-19T07:43:17.301Z,1016.32
2018-08-19T07:44:25.950Z,1016.37
2018-08-19T07:45:34.590Z,1016.37
2018-08-19T07:46:43.248Z,1016.37
2018-08-19T07:47:51.895Z,1016.37
2018-08-19T07:49:00.539Z,1016.39
2018-08-19T07:50:09.182Z,1016.4
2018-08-19T07:51:17.892Z,1016.39
2018-08-19T07:52:26.479Z,1016.37
2018-08-19T07:53:35.386Z,1016.37
2018-08-19T07:54:44.030Z,1016.33
2018-08-19T07:55:52.675Z,1016.32
2018-08-19T07:57:01.324Z,1016.29
2018-08-19T07:58:09.973Z,1016.3
2018-08-19T07:59:18.622Z,1016.29
2018-08-19T08:00:27.264Z,1016.35
2018-08-19T08:01:35.911Z,1016.31
2018-08-19T08:02:44.563Z,1016.32
2018-08-19T08:03:53.214Z,1016.31
2018-08-19T08:05:01.854Z,1016.31
2018-08-19T08:06:10.772Z,1016.32
2018-08-19T08:07:19.419Z,1016.35
2018-08-19T08:08:28.334Z,1016.36
2018-08-19T08:09:37.244Z,1016.37
2018-08-19T08:10:45.932Z,1016.34
2018-08-19T08:11:54.538Z,1016.35
2018-08-19T08:13:03.197Z,1016.32
2018-08-19T08:14:11.846Z,1016.27
2018-08-19T08:15:20.488Z,1016.31
2018-08-19T08:16:29.133Z,1016.32
2018-08-19T08:17:37.780Z,1016.3
2018-08-19T08:18:46.435Z,1016.29
2018-08-19T08:19:55.088Z,1016.28
2018-08-19T08:21:03.769Z,1016.33
2018-08-19T08:22:12.379Z,1016.35
2018-08-19T08:23:21.036Z,1016.32
2018-08-19T08:24:29.677Z,1016.32
2018-08-19T08:25:38.332Z,1016.31
2018-08-19T08:26:46.970Z,1016.31
2018-08-19T08:27:55.627Z,1016.35
2018-08-19T08:29:04.309Z,1016.34
2018-08-19T08:30:12.924Z,1016.33
2018-08-19T08:31:21.563Z,1016.31
2018-08-19T08:32:30.213Z,1016.37
2018-08-19T08:33:38.867Z,1016.36
2018-08-19T08:34:47.516Z,1016.34
2018-08-19T08:35:56.175Z,1016.42
2018-08-19T08:37:05.078Z,1016.34
2018-08-19T08:38:13.729Z,1016.38
2018-08-19T08:39:22.372Z,1016.37
2018-08-19T08:40:31.875Z,1016.37
2018-08-19T08:41:40.822Z,1016.37
2018-08-19T08:42:49.474Z,1016.39
2018-08-19T08:43:58.384Z,1016.46
2018-08-19T08:45:07.042Z,1016.45
2018-08-19T08:46:15.681Z,1016.39
2018-08-19T08:47:24.337Z,1016.4
2018-08-19T08:48:32.978Z,1016.43
2018-08-19T08:49:41.640Z,1016.54
2018-08-19T08:50:50.283Z,1016.44
2018-08-19T08:51:59.199Z,1016.41
2018-08-19T08:53:07.880Z,1016.43
2018-08-19T08:54:16.492Z,1016.41
2018-08-19T08:55:25.414Z,1016.45
2018-08-19T08:56:34.061Z,1016.4
2018-08-19T08:57:42.717Z,1016.38
2018-08-19T08:58:51.356Z,1016.38
2018-08-19T09:00:00.013Z,1016.37
2018-08-19T09:01:08.923Z,1016.4
2018-08-19T09:02:17.844Z,1016.46
2018-08-19T09:03:26.496Z,1016.45
2018-08-19T09:04:35.133Z,1016.34
2018-08-19T09:05:43.784Z,1016.45
2018-08-19T09:06:52.701Z,1016.42
2018-08-19T09:08:01.363Z,1016.36
2018-08-19T09:09:10.007Z,1016.35
2018-08-19T09:10:18.653Z,1016.35
2018-08-19T09:11:27.297Z,1016.4
2018-08-19T09:12:35.949Z,1016.32
2018-08-19T09:13:44.891Z,1016.31
2018-08-19T09:14:54.110Z,1016.32
2018-08-19T09:16:03.025Z,1016.21
2018-08-19T09:17:11.665Z,1016.3
2018-08-19T09:18:20.322Z,1016.27
2018-08-19T09:19:28.967Z,1016.22
2018-08-19T09:20:37.620Z,1016.22
2018-08-19T09:21:46.261Z,1016.25
2018-08-19T09:22:54.980Z,1016.19
2018-08-19T09:24:03.566Z,1016.18
2018-08-19T09:25:12.218Z,1016.17
2018-08-19T09:26:20.866Z,1016.19
2018-08-19T09:27:29.519Z,1016.15
2018-08-19T09:28:38.436Z,1016.16
2018-08-19T09:29:47.089Z,1016.17
2018-08-19T09:30:55.739Z,1016.16
2018-08-19T09:32:04.383Z,1016.08
2018-08-19T09:33:13.083Z,1016.16
2018-08-19T09:34:21.682Z,1016.1
2018-08-19T09:35:30.341Z,1016.07
2018-08-19T09:36:38.980Z,1016.16
2018-08-19T09:37:47.899Z,1016.11
2018-08-19T09:38:56.551Z,1016.08
2018-08-19T09:40:05.212Z,1016.12
2018-08-19T09:41:14.114Z,1016.1
2018-08-19T09:42:22.769Z,1016.06
2018-08-19T09:43:31.675Z,1016.07
2018-08-19T09:44:40.335Z,1016.05
2018-08-19T09:45:48.978Z,1016.06
2018-08-19T09:46:57.896Z,1016.11
2018-08-19T09:48:06.540Z,1016.11
2018-08-19T09:49:15.457Z,1016.08
2018-08-19T09:50:24.117Z,1016
2018-08-19T09:51:32.763Z,1015.92
2018-08-19T09:52:41.419Z,1015.89
2018-08-19T09:53:50.060Z,1015.9
2018-08-19T09:54:58.718Z,1015.95
2018-08-19T09:56:07.365Z,1015.92
2018-08-19T09:57:16.020Z,1015.89
2018-08-19T09:58:24.660Z,1015.93
2018-08-19T09:59:33.581Z,1015.89
2018-08-19T10:00:42.224Z,1015.89
2018-08-19T10:01:50.872Z,1015.85
2018-08-19T10:02:59.515Z,1015.84
2018-08-19T10:04:08.168Z,1015.82
2018-08-19T10:05:16.817Z,1015.79
2018-08-19T10:06:25.469Z,1015.74
2018-08-19T10:07:34.123Z,1015.8
2018-08-19T10:08:42.771Z,1015.8
2018-08-19T10:09:51.686Z,1015.75
2018-08-19T10:11:00.335Z,1015.79
2018-08-19T10:12:08.999Z,1015.77
2018-08-19T10:13:17.905Z,1015.73
2018-08-19T10:14:26.818Z,1015.75
2018-08-19T10:15:35.470Z,1015.75
2018-08-19T10:16:44.124Z,1015.78
2018-08-19T10:17:52.767Z,1015.8
2018-08-19T10:19:01.420Z,1015.77
2018-08-19T10:20:10.609Z,1015.79
2018-08-19T10:21:19.264Z,1015.74
2018-08-19T10:22:27.911Z,1015.77
2018-08-19T10:23:36.560Z,1015.76
2018-08-19T10:24:45.208Z,1015.73
2018-08-19T10:25:53.854Z,1015.69
2018-08-19T10:27:02.516Z,1015.7
2018-08-19T10:28:11.168Z,1015.7
2018-08-19T10:29:19.817Z,1015.67
2018-08-19T10:30:28.996Z,1015.6
2018-08-19T10:31:37.650Z,1015.66
2018-08-19T10:32:46.566Z,1015.49
2018-08-19T10:33:55.215Z,1015.54
2018-08-19T10:35:04.963Z,1015.54
2018-08-19T10:36:13.620Z,1015.5
2018-08-19T10:37:22.268Z,1015.45
2018-08-19T10:38:30.931Z,1015.52
2018-08-19T10:39:39.575Z,1015.5
2018-08-19T10:40:48.229Z,1015.49
2018-08-19T10:41:56.878Z,1015.41
2018-08-19T10:43:05.530Z,1015.44
2018-08-19T10:44:14.181Z,1015.38
2018-08-19T10:45:22.828Z,1015.43
2018-08-19T10:46:31.477Z,1015.32
2018-08-19T10:47:40.128Z,1015.39
2018-08-19T10:48:48.782Z,1015.42
2018-08-19T10:49:57.692Z,1015.44
2018-08-19T10:51:06.347Z,1015.38
2018-08-19T10:52:14.996Z,1015.36
2018-08-19T10:53:23.691Z,1015.35
2018-08-19T10:54:33.038Z,1015.33
2018-08-19T10:55:41.693Z,1015.4
2018-08-19T10:56:50.339Z,1015.35
2018-08-19T10:57:58.994Z,1015.33
2018-08-19T10:59:07.643Z,1015.36
2018-08-19T11:00:16.292Z,1015.33
2018-08-19T11:01:24.944Z,1015.31
2018-08-19T11:02:33.595Z,1015.21
2018-08-19T11:03:42.240Z,1015.28
2018-08-19T11:04:50.892Z,1015.28
2018-08-19T11:05:59.538Z,1015.28
2018-08-19T11:07:08.199Z,1015.32
2018-08-19T11:08:17.102Z,1015.24
2018-08-19T11:09:25.756Z,1015.21
2018-08-19T11:10:34.669Z,1015.26
2018-08-19T11:11:43.329Z,1015.24
2018-08-19T11:12:51.971Z,1015.23
2018-08-19T11:14:00.886Z,1015.21
2018-08-19T11:15:09.795Z,1015.22
2018-08-19T11:16:18.456Z,1015.17
2018-08-19T11:17:27.104Z,1015.19
2018-08-19T11:18:35.751Z,1015.23
2018-08-19T11:19:44.674Z,1015.24
2018-08-19T11:20:53.352Z,1015.25
2018-08-19T11:22:02.277Z,1015.23
2018-08-19T11:23:11.186Z,1015.22
2018-08-19T11:24:19.841Z,1015.18
2018-08-19T11:25:28.484Z,1015.15
2018-08-19T11:26:37.145Z,1015.06
2018-08-19T11:27:45.789Z,1015.11
2018-08-19T11:28:54.444Z,1015.11
2018-08-19T11:30:03.352Z,1015.15
2018-08-19T11:31:12.277Z,1015.15
2018-08-19T11:32:21.605Z,1015.1
2018-08-19T11:33:30.260Z,1015.08
2018-08-19T11:34:38.901Z,1015.1
2018-08-19T11:35:47.555Z,1015.06
2018-08-19T11:36:56.209Z,1015.14
2018-08-19T11:38:04.866Z,1015.06
2018-08-19T11:39:13.519Z,1015.03
2018-08-19T11:40:22.161Z,1015.07
2018-08-19T11:41:30.815Z,1015.02
2018-08-19T11:42:39.465Z,1015.03
2018-08-19T11:43:48.126Z,1015.01
2018-08-19T11:44:56.767Z,1014.97
2018-08-19T11:46:05.690Z,1015.06
2018-08-19T11:47:14.339Z,1015.06
2018-08-19T11:48:22.999Z,1015.11
2018-08-19T11:49:31.641Z,1015.05
2018-08-19T11:50:40.295Z,1014.98
2018-08-19T11:51:48.943Z,1015.04
2018-08-19T11:52:57.601Z,1015.02
2018-08-19T11:54:06.251Z,1015.02
2018-08-19T11:55:14.905Z,1015.05
2018-08-19T11:56:23.546Z,1015.05
2018-08-19T11:57:32.195Z,1015.05
2018-08-19T11:58:40.859Z,1015.08
2018-08-19T11:59:49.504Z,1015.05
2018-08-19T12:00:58.196Z,1015.09
2018-08-19T12:02:06.845Z,1015.02
2018-08-19T12:03:15.457Z,1015
2018-08-19T12:04:24.109Z,1015.05
2018-08-19T12:05:32.759Z,1015.01
2018-08-19T12:06:41.406Z,1014.94
2018-08-19T12:07:50.062Z,1015
2018-08-19T12:08:58.713Z,1015
2018-08-19T12:10:07.626Z,1015.05
2018-08-19T12:11:16.272Z,1015.01
2018-08-19T12:12:24.925Z,1014.96
2018-08-19T12:13:33.574Z,1014.99
2018-08-19T12:14:42.229Z,1014.99
2018-08-19T12:15:50.879Z,1014.91
2018-08-19T12:16:59.593Z,1014.93
2018-08-19T12:18:09.339Z,1014.85
2018-08-19T12:19:17.991Z,1014.86
2018-08-19T12:20:26.658Z,1014.86
2018-08-19T12:21:35.570Z,1014.86
2018-08-19T12:22:44.221Z,1014.85
2018-08-19T12:23:52.872Z,1014.88
2018-08-19T12:25:01.529Z,1014.84
2018-08-19T12:26:10.174Z,1014.74
2018-08-19T12:27:18.854Z,1014.78
2018-08-19T12:28:28.126Z,1014.79
2018-08-19T12:29:36.783Z,1014.83
2018-08-19T12:30:45.694Z,1014.81
2018-08-19T12:31:54.342Z,1014.69
2018-08-19T12:33:02.988Z,1014.73
2018-08-19T12:34:11.637Z,1014.74
2018-08-19T12:35:20.561Z,1014.62
2018-08-19T12:36:29.215Z,1014.66
2018-08-19T12:37:37.870Z,1014.63
2018-08-19T12:38:46.773Z,1014.6
2018-08-19T12:39:55.428Z,1014.56
2018-08-19T12:41:04.083Z,1014.56
2018-08-19T12:42:12.734Z,1014.55
2018-08-19T12:43:21.380Z,1014.56
2018-08-19T12:44:30.041Z,1014.61
2018-08-19T12:45:38.683Z,1014.54
2018-08-19T12:46:47.338Z,1014.56
2018-08-19T12:47:55.983Z,1014.52
2018-08-19T12:49:04.639Z,1014.52
2018-08-19T12:50:13.577Z,1014.53
2018-08-19T12:51:22.569Z,1014.48
2018-08-19T12:52:31.587Z,1014.52
2018-08-19T12:53:40.231Z,1014.53
2018-08-19T12:54:49.152Z,1014.5
2018-08-19T12:55:58.202Z,1014.46
2018-08-19T12:57:06.722Z,1014.45
2018-08-19T12:58:15.372Z,1014.37
2018-08-19T12:59:24.023Z,1014.4
2018-08-19T13:00:32.677Z,1014.4
2018-08-19T13:01:41.333Z,1014.38
2018-08-19T13:02:50.254Z,1014.37
2018-08-19T13:03:59.171Z,1014.37
2018-08-19T13:05:08.087Z,1014.4
2018-08-19T13:06:17.006Z,1014.44
2018-08-19T13:07:25.661Z,1014.39
2018-08-19T13:08:34.312Z,1014.36
2018-08-19T13:09:42.967Z,1014.3
2018-08-19T13:10:51.626Z,1014.31
2018-08-19T13:12:00.270Z,1014.25
2018-08-19T13:13:08.919Z,1014.31
2018-08-19T13:14:17.835Z,1014.26
2018-08-19T13:15:26.491Z,1014.26
2018-08-19T13:16:35.141Z,1014.28
2018-08-19T13:17:44.053Z,1014.26
2018-08-19T13:18:52.705Z,1014.14
2018-08-19T13:20:01.360Z,1014.2
2018-08-19T13:21:10.008Z,1014.13
2018-08-19T13:22:18.664Z,1014.16
2018-08-19T13:23:27.586Z,1014.14
2018-08-19T13:24:36.244Z,1014.22
2018-08-19T13:25:44.892Z,1014.15
2018-08-19T13:26:53.804Z,1014.17
2018-08-19T13:28:02.451Z,1014.09
2018-08-19T13:29:11.104Z,1014.07
2018-08-19T13:30:19.765Z,1014.06
2018-08-19T13:31:28.416Z,1014.01
2018-08-19T13:32:37.069Z,1014.07
2018-08-19T13:33:45.716Z,1014
2018-08-19T13:34:54.372Z,1014.03
2018-08-19T13:36:03.024Z,1013.97
2018-08-19T13:37:11.931Z,1013.99
2018-08-19T13:38:20.655Z,1013.89
2018-08-19T13:39:29.235Z,1013.95
2018-08-19T13:40:37.887Z,1013.95
2018-08-19T13:41:46.540Z,1013.89
2018-08-19T13:42:55.185Z,1013.85
2018-08-19T13:44:03.845Z,1013.91
2018-08-19T13:45:12.494Z,1013.87
2018-08-19T13:46:21.145Z,1013.92
2018-08-19T13:47:29.799Z,1013.93
2018-08-19T13:48:38.515Z,1013.81
2018-08-19T13:49:47.100Z,1013.84
2018-08-19T13:50:55.750Z,1013.76
2018-08-19T13:52:04.675Z,1013.78
2018-08-19T13:53:13.367Z,1013.76
2018-08-19T13:54:21.974Z,1013.7